createdAt,value
2022-10-22T17:11:06.536Z,13.30
2022-10-22T17:13:34.671Z,13.30
2022-10-22T17:16:05.582Z,13.40
2022-10-22T17:18:39.526Z,13.40
2022-10-22T17:21:10.275Z,13.40
2022-10-22T17:23:38.565Z,13.50
2022-10-22T17:26:09.720Z,13.50
2022-10-22T17:28:37.539Z,13.50
2022-10-22T17:31:10.516Z,13.60
2022-10-22T17:33:38.270Z,13.60
2022-10-22T17:36:10.816Z,13.70
2022-10-22T17:38:40.581Z,13.70
2022-10-22T17:41:13.790Z,13.72
2022-10-22T17:43:42.576Z,13.80
2022-10-22T17:46:16.119Z,13.80
2022-10-22T17:48:44.049Z,13.80
2022-10-22T17:51:14.066Z,13.80
2022-10-22T17:53:43.051Z,13.78
2022-10-22T17:56:13.403Z,13.78
2022-10-22T17:58:41.323Z,13.76
2022-10-22T18:01:20.702Z,13.70
2022-10-22T18:03:48.838Z,13.70
2022-10-22T18:06:16.930Z,13.70
2022-10-22T18:08:44.851Z,13.70
2022-10-22T18:11:17.973Z,13.76
2022-10-22T18:13:50.362Z,13.80
2022-10-22T18:16:19.042Z,13.80
2022-10-22T18:18:53.342Z,13.80
2022-10-22T18:21:23.784Z,13.88
2022-10-22T18:23:51.737Z,13.80
2022-10-22T18:26:22.792Z,13.90
2022-10-22T18:28:53.802Z,13.90
2022-10-22T18:31:24.747Z,13.90
2022-10-22T18:36:25.686Z,13.90
2022-10-22T18:38:59.544Z,13.90
2022-10-22T18:41:29.710Z,13.90
2022-10-22T18:44:01.441Z,13.90
2022-10-22T18:46:31.872Z,13.90
2022-10-22T18:48:59.555Z,14.00
2022-10-22T18:51:30.927Z,14.00
2022-10-22T18:54:05.943Z,14.00
2022-10-22T18:56:46.276Z,14.00
2022-10-22T18:59:21.871Z,14.00
2022-10-22T19:01:52.074Z,14.00
2022-10-22T19:04:19.943Z,14.00
2022-10-22T19:06:47.906Z,14.00
2022-10-22T19:09:16.950Z,13.92
2022-10-22T19:11:46.049Z,13.94
2022-10-22T19:14:14.950Z,13.96
2022-10-22T19:16:42.851Z,13.94
2022-10-22T19:19:14.985Z,13.90
2022-10-22T19:21:42.743Z,13.90
2022-10-22T19:24:11.966Z,13.90
2022-10-22T19:26:39.772Z,13.90
2022-10-22T19:29:08.133Z,13.96
2022-10-22T19:31:38.183Z,13.98
2022-10-22T19:34:06.066Z,14.00
2022-10-22T19:36:34.693Z,13.94
2022-10-22T19:39:04.155Z,13.96
2022-10-22T19:41:35.729Z,13.94
2022-10-22T19:44:03.916Z,13.90
2022-10-22T19:46:32.698Z,13.98
2022-10-22T19:49:02.965Z,14.00
2022-10-22T19:51:33.899Z,14.00
2022-10-22T19:54:09.426Z,14.00
2022-10-22T19:56:37.998Z,14.00
2022-10-22T19:59:08.725Z,14.00
2022-10-22T20:01:37.451Z,14.00
2022-10-22T20:04:08.169Z,14.00
2022-10-22T20:06:35.840Z,14.00
2022-10-22T20:09:03.653Z,14.00
2022-10-22T20:11:31.444Z,14.00
2022-10-22T20:13:59.545Z,14.00
2022-10-22T20:16:29.931Z,14.00
2022-10-22T20:19:05.317Z,14.00
2022-10-22T20:21:34.048Z,14.00
2022-10-22T20:24:02.161Z,14.00
2022-10-22T20:26:31.625Z,14.00
2022-10-22T20:28:59.643Z,14.00
2022-10-22T20:31:29.611Z,14.06
2022-10-22T20:34:00.033Z,14.10
2022-10-22T20:36:30.034Z,14.10
2022-10-22T20:39:06.262Z,14.10
2022-10-22T20:41:37.799Z,14.02
2022-10-22T20:44:07.509Z,14.08
2022-10-22T20:46:35.307Z,14.08
2022-10-22T20:49:10.031Z,14.02
2022-10-22T20:51:38.191Z,14.00
2022-10-22T20:54:07.741Z,14.00
2022-10-22T20:56:38.902Z,14.06
2022-10-22T20:59:08.550Z,14.06
2022-10-22T21:01:51.524Z,14.06
2022-10-22T21:04:21.447Z,14.08
2022-10-22T21:06:50.479Z,14.10
2022-10-22T21:09:18.218Z,14.08
2022-10-22T21:11:46.312Z,14.10
2022-10-22T21:14:19.974Z,14.10
2022-10-22T21:16:50.666Z,14.10
2022-10-22T21:19:20.325Z,14.10
2022-10-22T21:21:49.247Z,14.10
2022-10-22T21:24:17.283Z,14.10
2022-10-22T21:26:45.130Z,14.10
2022-10-22T21:29:13.661Z,14.10
2022-10-22T21:31:41.383Z,14.10
2022-10-22T21:34:09.301Z,14.10
2022-10-22T21:36:37.030Z,14.16
2022-10-22T21:39:05.461Z,14.10
2022-10-22T21:41:33.363Z,14.10
2022-10-22T21:44:01.100Z,14.10
2022-10-22T21:46:29.795Z,14.10
2022-10-22T21:49:01.137Z,14.08
2022-10-22T21:51:32.150Z,14.10
2022-10-22T21:54:00.334Z,14.08
2022-10-22T21:56:32.791Z,14.04
2022-10-22T21:59:02.953Z,14.10
2022-10-22T22:01:31.140Z,14.10
2022-10-22T22:03:59.576Z,14.08
2022-10-22T22:06:33.317Z,14.02
2022-10-22T22:15:20.603Z,14.02
2022-10-22T22:17:48.339Z,14.00
2022-10-22T22:20:16.338Z,14.00
2022-10-22T22:22:44.407Z,14.04
2022-10-22T22:25:12.315Z,14.00
2022-10-22T22:27:40.436Z,14.00
2022-10-22T22:30:09.434Z,14.00
2022-10-22T22:32:37.144Z,14.00
2022-10-22T22:35:05.708Z,14.00
2022-10-22T22:37:33.371Z,14.00
2022-10-22T22:40:01.187Z,14.00
2022-10-22T22:42:28.919Z,14.00
2022-10-22T22:44:56.626Z,14.00
2022-10-22T22:47:24.358Z,14.02
2022-10-22T22:49:52.036Z,14.02
2022-10-22T22:54:52.398Z,14.10
2022-10-22T22:57:20.124Z,14.10
2022-10-22T22:59:50.936Z,14.10
2022-10-22T23:02:18.685Z,14.10
2022-10-22T23:04:47.547Z,14.10
2022-10-22T23:07:15.287Z,14.10
2022-10-22T23:09:43.038Z,14.10
2022-10-22T23:12:10.774Z,14.10
2022-10-22T23:14:38.509Z,14.10
2022-10-22T23:17:06.214Z,14.10
2022-10-22T23:19:34.386Z,14.10
2022-10-22T23:22:02.609Z,14.10
2022-10-22T23:24:30.543Z,14.10
2022-10-22T23:27:03.098Z,14.12
2022-10-22T23:29:35.832Z,14.20
2022-10-22T23:32:07.701Z,14.20
2022-10-22T23:34:35.348Z,14.20
2022-10-22T23:37:03.232Z,14.20
2022-10-22T23:39:30.971Z,14.10
2022-10-22T23:41:59.143Z,14.10
2022-10-22T23:44:26.863Z,14.10
2022-10-22T23:46:55.240Z,14.10
2022-10-22T23:49:23.214Z,14.12
2022-10-22T23:51:50.846Z,14.10
2022-10-22T23:54:19.151Z,14.10
2022-10-22T23:56:47.231Z,14.10
2022-10-22T23:59:15.995Z,14.10
